Aérodrome :
LOGIN :

S'inscrire | Disclaimer

   EN    FR    IT 

 










Légende :    VFR   VFR Marginal   IFR   IFR Intensif   IFR Très Intensif
Visi : 
Plafond : 
>= 8 km
>= 3000ft
5 à 8 km
1000 à 3000 ft
1500m à 5 km
500 à 1000 ft
800 à 1500m
200 à 500 ft
< 800m
< 200 ft
Symboles :   Orages  Brouillard  Fortes neiges  Fortes précipitations  Vent > 20 kt
SIGMETs :   Divers  Orages  Givrage  Turbulence  Onde Orograph.  Cendres Volcan.






- Altitude de l'aérodrome : 598 ft
- Code IATA : BQH


EGKB - Biggin Hill

DERNIER METAR :
  • 031950Z 36011KT 9999 SCT035 13/08 Q1007

METARs EXPIRÉS :
  • 031920Z 01011KT 9999 SCT032 14/09 Q1007
  • 031850Z 36012KT 9999 FEW032 14/09 Q1006
  • 031820Z 36012KT 340V040 9999 SCT035 15/09 Q1006
  • 031750Z 36010KT 9999 FEW035 15/10 Q1006
  • 031720Z 01009KT 9999 FEW030 16/10 Q1006

TAF TAF EGKB
Valide du 03 à 15h jusqu'au 03 à 22h UTC


031406Z 0315/0322 36009KT 9999 FEW030
PROB40
TEMPO 0315/0322 8000 -RA BKN030
PROB30
TEMPO 0319/0322 RA BKN014



MET'MAP, la Météo Aéronautique d'un coup d'oeil ! - Copyright ORBIFLY Décembre 2007 - Disclaimer

ORBIFLY MET'MAP TEAM :

Programmation & Développement : Alexandra Zaïnal
Sur une idée originale de : Baudouin d'Aumeries
Assistance à la programmation : Marc-Olivier Méhu
Soutien technique & logistique : Manuel Goepfert

Contact : metmap@orbifly.com




SOURCES & CREDITS :

   NOAA